createdAt,value
2022-10-25T00:01:31.324Z,0.10
2022-10-25T00:07:02.020Z,0.30
2022-10-25T00:12:13.248Z,0.10
2022-10-25T00:14:40.101Z,0.10
2022-10-25T00:17:06.973Z,0.20
2022-10-25T00:19:33.724Z,0.10
2022-10-25T00:22:00.502Z,0.17
2022-10-25T00:24:27.818Z,0.20
2022-10-25T00:26:54.736Z,0.10
2022-10-25T00:29:21.703Z,0.25
2022-10-25T00:31:48.437Z,0.20
2022-10-25T00:34:34.050Z,0.10
2022-10-25T00:37:00.807Z,0.13
2022-10-25T00:39:27.586Z,0.10
2022-10-25T00:41:54.313Z,0.30
2022-10-25T00:44:35.946Z,0.10
2022-10-25T00:47:06.882Z,0.20
2022-10-25T00:49:34.772Z,0.20
2022-10-25T00:52:04.653Z,0.10
2022-10-25T00:54:53.121Z,0.20
2022-10-25T00:57:26.916Z,0.28
2022-10-25T00:59:54.088Z,0.30
2022-10-25T01:02:22.980Z,0.20
2022-10-25T01:04:50.741Z,0.68
2022-10-25T01:07:17.478Z,0.10
2022-10-25T01:09:44.821Z,0.20
2022-10-25T01:12:11.647Z,0.20
2022-10-25T01:14:42.304Z,0.20
2022-10-25T01:17:11.730Z,0.30
2022-10-25T01:19:44.554Z,1.23
2022-10-25T01:22:20.585Z,2.17
2022-10-25T01:25:09.261Z,1.58
2022-10-25T01:27:45.186Z,0.82
2022-10-25T01:30:17.961Z,0.47
2022-10-25T01:33:02.650Z,0.40
2022-10-25T01:35:36.030Z,0.15
2022-10-25T01:38:20.717Z,0.20
2022-10-25T01:41:05.577Z,0.20
2022-10-25T01:44:03.124Z,0.15
2022-10-25T01:47:01.675Z,0.10
2022-10-25T01:49:49.119Z,0.10
2022-10-25T01:52:23.015Z,0.20
2022-10-25T01:54:51.278Z,0.10
2022-10-25T01:57:49.020Z,0.50
2022-10-25T02:00:21.317Z,0.20
2022-10-25T02:03:08.293Z,0.30
2022-10-25T02:05:59.897Z,0.20
2022-10-25T02:08:38.809Z,0.10
2022-10-25T02:11:25.410Z,0.40
2022-10-25T02:14:13.925Z,0.50
2022-10-25T02:17:04.461Z,0.30
2022-10-25T02:19:37.915Z,0.30
2022-10-25T02:22:09.402Z,0.20
2022-10-25T02:24:38.717Z,0.10
2022-10-25T02:27:07.053Z,0.20
2022-10-25T02:29:35.718Z,0.10
2022-10-25T02:32:04.657Z,0.10
2022-10-25T02:34:32.177Z,0.10
2022-10-25T02:36:59.428Z,0.10
2022-10-25T02:39:31.292Z,0.10
2022-10-25T02:42:02.350Z,0.10
2022-10-25T02:44:29.225Z,0.20
2022-10-25T02:46:56.010Z,0.10
2022-10-25T02:49:22.860Z,0.10
2022-10-25T02:51:49.541Z,0.10
2022-10-25T02:54:16.333Z,0.30
2022-10-25T02:56:43.054Z,0.20
2022-10-25T02:59:11.949Z,0.17
2022-10-25T03:01:39.206Z,0.20
2022-10-25T03:06:50.239Z,0.20
2022-10-25T03:09:16.937Z,0.30
2022-10-25T03:11:43.854Z,0.30
2022-10-25T03:14:10.575Z,0.43
2022-10-25T03:16:37.396Z,0.28
2022-10-25T03:19:04.358Z,0.10
2022-10-25T03:21:31.130Z,0.10
2022-10-25T03:26:42.211Z,0.10
2022-10-25T03:29:08.994Z,0.20
2022-10-25T03:31:35.813Z,0.20
2022-10-25T03:34:02.572Z,0.35
2022-10-25T03:36:29.308Z,0.15
2022-10-25T03:38:56.022Z,0.10
2022-10-25T03:44:06.955Z,0.17
2022-10-25T03:46:33.676Z,0.10
2022-10-25T03:49:00.487Z,0.20
2022-10-25T03:51:27.270Z,0.35
2022-10-25T03:53:54.025Z,0.10
2022-10-25T03:56:20.729Z,0.30
2022-10-25T03:58:47.486Z,0.20
2022-10-25T04:01:14.358Z,0.40
2022-10-25T04:03:41.209Z,0.30
2022-10-25T04:06:08.060Z,0.20
2022-10-25T04:08:34.832Z,0.10
2022-10-25T04:11:01.656Z,0.30
2022-10-25T04:13:28.465Z,0.10
2022-10-25T04:15:55.214Z,0.20
2022-10-25T04:18:22.025Z,0.20
2022-10-25T04:20:48.744Z,0.30
2022-10-25T04:23:15.499Z,0.20
2022-10-25T04:25:42.236Z,0.10
2022-10-25T04:30:53.698Z,0.20
2022-10-25T04:33:39.081Z,0.03
2022-10-25T04:38:51.496Z,0.10
2022-10-25T04:41:18.638Z,0.40
2022-10-25T04:43:46.522Z,0.20
2022-10-25T04:46:32.874Z,0.28
2022-10-25T04:48:59.854Z,0.10
2022-10-25T04:51:26.685Z,0.32
2022-10-25T04:53:55.001Z,0.17
2022-10-25T04:56:22.573Z,0.15
2022-10-25T04:58:49.328Z,0.20
2022-10-25T05:01:17.891Z,0.10
2022-10-25T05:03:45.360Z,0.17
2022-10-25T05:06:15.845Z,0.20
2022-10-25T05:08:45.542Z,0.20
2022-10-25T05:11:13.773Z,0.15
2022-10-25T05:13:41.710Z,0.28
2022-10-25T05:16:11.290Z,0.10
2022-10-25T05:18:38.052Z,0.10
2022-10-25T05:21:06.638Z,0.10
2022-10-25T05:24:11.221Z,0.13
2022-10-25T05:26:38.055Z,0.20
2022-10-25T05:29:09.972Z,0.40
2022-10-25T05:31:38.746Z,0.10
2022-10-25T05:34:24.140Z,0.10
2022-10-25T05:36:51.406Z,0.10
2022-10-25T05:39:18.425Z,0.10
2022-10-25T05:41:45.249Z,0.28
2022-10-25T05:44:12.013Z,0.20
2022-10-25T05:46:38.778Z,0.20
2022-10-25T05:49:05.524Z,0.20
2022-10-25T05:51:35.896Z,0.13
2022-10-25T05:54:23.509Z,0.20
2022-10-25T05:56:50.259Z,0.20
2022-10-25T05:59:16.983Z,0.10
2022-10-25T06:01:45.577Z,0.10
2022-10-25T06:04:32.015Z,0.10
2022-10-25T06:06:58.791Z,0.20
2022-10-25T06:09:25.512Z,0.15
2022-10-25T06:11:52.287Z,0.20
2022-10-25T06:14:19.138Z,0.20
2022-10-25T06:16:45.923Z,0.20
2022-10-25T06:19:12.660Z,0.10
2022-10-25T06:21:39.426Z,0.10
2022-10-25T06:24:06.757Z,0.47
2022-10-25T06:26:33.650Z,0.40
2022-10-25T06:29:02.705Z,0.60
2022-10-25T06:31:30.820Z,0.30
2022-10-25T06:33:59.744Z,0.10
2022-10-25T06:36:27.767Z,0.70
2022-10-25T06:38:54.736Z,0.10
2022-10-25T06:41:24.555Z,0.30
2022-10-25T06:43:51.846Z,0.20
2022-10-25T06:46:21.489Z,0.10
2022-10-25T06:48:48.541Z,0.30
2022-10-25T06:51:15.738Z,0.20
2022-10-25T06:54:02.216Z,0.20
2022-10-25T06:56:29.296Z,0.20
2022-10-25T06:58:56.124Z,0.20
2022-10-25T07:01:24.340Z,0.20
2022-10-25T07:03:53.664Z,0.20
2022-10-25T07:06:49.978Z,0.10
2022-10-25T07:09:19.733Z,0.55
2022-10-25T07:11:46.564Z,0.20
2022-10-25T07:14:13.249Z,0.40
2022-10-25T07:16:39.949Z,0.28
2022-10-25T07:19:06.856Z,0.50
2022-10-25T07:21:34.146Z,0.30
2022-10-25T07:24:01.199Z,0.38
2022-10-25T07:26:33.984Z,0.30
2022-10-25T07:29:02.356Z,0.20
2022-10-25T07:31:35.296Z,0.20
2022-10-25T07:34:03.737Z,0.10
2022-10-25T07:36:49.419Z,0.20
2022-10-25T07:39:16.255Z,0.20
2022-10-25T07:41:42.941Z,0.25
2022-10-25T07:44:15.460Z,0.20
2022-10-25T07:46:43.693Z,0.25
2022-10-25T07:49:10.511Z,0.40
2022-10-25T07:51:37.754Z,0.28
2022-10-25T07:54:04.781Z,0.38
2022-10-25T07:56:31.534Z,0.35
2022-10-25T07:58:58.343Z,0.52
2022-10-25T08:04:12.287Z,0.65
2022-10-25T08:06:38.980Z,0.22
2022-10-25T08:09:14.564Z,0.20
2022-10-25T08:11:42.196Z,0.10
2022-10-25T08:14:08.961Z,0.10
2022-10-25T08:16:54.787Z,0.38
2022-10-25T08:19:21.488Z,0.50
2022-10-25T08:21:48.331Z,0.20
2022-10-25T08:24:15.116Z,0.30
2022-10-25T08:26:41.905Z,0.20
2022-10-25T08:29:09.023Z,0.32
2022-10-25T08:31:36.402Z,0.65
2022-10-25T08:34:04.020Z,0.43
2022-10-25T08:36:30.934Z,0.20
2022-10-25T08:38:57.695Z,0.20
2022-10-25T08:41:28.549Z,0.10
2022-10-25T08:44:16.767Z,0.20
2022-10-25T08:46:59.488Z,0.15
2022-10-25T08:49:34.298Z,0.20
2022-10-25T08:52:02.343Z,0.40
2022-10-25T08:54:43.720Z,0.20
2022-10-25T08:57:16.822Z,0.20
2022-10-25T08:59:49.252Z,0.30
2022-10-25T09:02:36.942Z,0.20
2022-10-25T09:05:04.866Z,0.20
2022-10-25T09:08:02.466Z,0.50
2022-10-25T09:10:53.577Z,0.40
2022-10-25T09:16:17.494Z,0.30
2022-10-25T09:18:48.403Z,0.25
2022-10-25T09:21:22.388Z,0.20
2022-10-25T09:24:08.401Z,0.38
2022-10-25T09:26:41.103Z,0.25
2022-10-25T09:29:55.714Z,0.13
2022-10-25T09:32:39.678Z,0.30
2022-10-25T09:35:15.097Z,0.50
2022-10-25T09:37:51.369Z,0.30
2022-10-25T09:40:33.147Z,0.20
2022-10-25T09:43:23.237Z,0.20
2022-10-25T09:46:03.789Z,0.30
2022-10-25T09:48:33.542Z,0.63
2022-10-25T09:51:10.065Z,0.35
2022-10-25T09:53:40.806Z,0.30
2022-10-25T09:56:08.121Z,0.35
2022-10-25T09:58:39.658Z,0.32
2022-10-25T10:01:13.447Z,0.30
2022-10-25T10:03:41.398Z,0.50
2022-10-25T10:06:28.924Z,0.20
2022-10-25T10:09:03.164Z,0.28
2022-10-25T10:11:50.036Z,0.57
2022-10-25T10:14:45.713Z,0.30
2022-10-25T10:17:17.627Z,0.20
2022-10-25T10:19:44.463Z,0.43
2022-10-25T10:22:15.872Z,0.85
2022-10-25T10:24:44.781Z,0.32
2022-10-25T10:27:26.402Z,0.10
2022-10-25T10:29:58.029Z,0.43
2022-10-25T10:32:33.072Z,0.20
2022-10-25T10:35:32.760Z,0.30
2022-10-25T10:38:26.251Z,0.32
2022-10-25T10:41:23.452Z,0.20
2022-10-25T10:43:50.823Z,0.28
2022-10-25T10:46:24.842Z,0.20
2022-10-25T10:49:10.922Z,0.45
2022-10-25T10:51:45.780Z,0.20
2022-10-25T10:54:25.602Z,0.22
2022-10-25T10:57:06.404Z,0.35
2022-10-25T10:59:59.857Z,0.32
2022-10-25T11:02:40.504Z,0.40
2022-10-25T11:05:24.296Z,0.40
2022-10-25T11:08:09.176Z,0.30
2022-10-25T11:10:37.489Z,0.45
2022-10-25T11:13:18.269Z,0.57
2022-10-25T11:16:36.752Z,1.15
2022-10-25T11:19:27.745Z,0.38
2022-10-25T11:22:08.909Z,0.40
2022-10-25T11:25:18.081Z,0.50
2022-10-25T11:27:54.739Z,0.38
2022-10-25T11:33:13.561Z,0.35
2022-10-25T11:36:06.996Z,0.68
2022-10-25T11:39:01.562Z,0.57
2022-10-25T11:41:38.134Z,0.40
2022-10-25T11:44:44.343Z,0.50
2022-10-25T11:47:24.586Z,0.40
2022-10-25T11:50:31.373Z,0.60
2022-10-25T11:53:14.504Z,0.50
2022-10-25T11:55:53.025Z,0.50
2022-10-25T11:58:50.420Z,0.52
2022-10-25T12:01:57.406Z,0.60
2022-10-25T12:04:55.126Z,0.40
2022-10-25T12:07:50.686Z,0.60
2022-10-25T12:10:36.329Z,0.57
2022-10-25T12:13:30.109Z,0.60
2022-10-25T12:16:34.642Z,0.50
2022-10-25T12:19:19.561Z,0.30
2022-10-25T12:22:01.836Z,0.65
2022-10-25T12:24:41.535Z,0.68
2022-10-25T12:27:10.584Z,0.47
2022-10-25T12:29:48.807Z,0.60
2022-10-25T12:32:20.972Z,0.57
2022-10-25T12:34:53.589Z,0.43
2022-10-25T12:37:45.104Z,1.15
2022-10-25T12:40:17.807Z,0.40
2022-10-25T12:42:50.277Z,0.50
2022-10-25T12:45:41.563Z,0.88
2022-10-25T12:48:17.442Z,0.77
2022-10-25T12:51:04.864Z,0.80
2022-10-25T12:54:02.325Z,0.50
2022-10-25T12:57:04.198Z,0.60
2022-10-25T12:59:45.913Z,0.40
2022-10-25T13:02:50.525Z,0.85
2022-10-25T13:05:36.500Z,0.50
2022-10-25T13:08:06.280Z,0.70
2022-10-25T13:10:40.142Z,0.60
2022-10-25T13:13:16.282Z,0.50
2022-10-25T13:16:21.334Z,0.68
2022-10-25T13:21:54.703Z,0.70
2022-10-25T13:24:44.100Z,0.55
2022-10-25T13:27:19.602Z,0.65
2022-10-25T13:29:46.387Z,1.00
2022-10-25T13:32:20.058Z,0.82
2022-10-25T13:34:47.562Z,0.82
2022-10-25T13:37:34.590Z,0.60
2022-10-25T13:40:03.526Z,0.90
2022-10-25T13:42:36.972Z,0.70
2022-10-25T13:45:03.681Z,1.08
2022-10-25T13:47:33.598Z,0.60
2022-10-25T13:50:01.083Z,0.70
2022-10-25T13:52:33.888Z,1.00
2022-10-25T13:55:04.044Z,1.00
2022-10-25T13:57:53.678Z,0.52
2022-10-25T14:00:36.719Z,0.80
2022-10-25T14:03:03.891Z,0.55
2022-10-25T14:05:55.719Z,0.80
2022-10-25T14:08:25.208Z,0.85
2022-10-25T14:10:53.304Z,0.65
2022-10-25T14:13:46.553Z,0.50
2022-10-25T14:16:51.682Z,1.10
2022-10-25T14:19:34.040Z,1.00
2022-10-25T14:22:07.040Z,0.90
2022-10-25T14:24:34.478Z,0.98
2022-10-25T14:27:01.510Z,1.02
2022-10-25T14:29:46.618Z,0.98
2022-10-25T14:32:13.674Z,0.90
2022-10-25T14:34:41.737Z,0.55
2022-10-25T14:37:15.257Z,1.15
2022-10-25T14:39:52.239Z,1.40
2022-10-25T14:42:19.151Z,0.77
2022-10-25T14:44:50.683Z,0.70
2022-10-25T14:47:27.641Z,0.77
2022-10-25T14:49:54.776Z,0.85
2022-10-25T14:52:21.865Z,1.33
2022-10-25T14:55:01.401Z,1.08
2022-10-25T14:57:47.157Z,1.30
2022-10-25T15:00:22.841Z,1.02
2022-10-25T15:02:56.331Z,1.00
2022-10-25T15:05:25.007Z,0.85
2022-10-25T15:07:57.377Z,0.90
2022-10-25T15:10:43.876Z,1.40
2022-10-25T15:13:21.243Z,0.40
2022-10-25T15:15:50.404Z,1.25
2022-10-25T15:18:28.374Z,1.23
2022-10-25T15:21:21.576Z,1.05
2022-10-25T15:24:12.521Z,1.10
2022-10-25T15:26:50.070Z,0.90
2022-10-25T15:29:49.178Z,1.00
2022-10-25T15:32:27.877Z,0.88
2022-10-25T15:34:57.139Z,1.15
2022-10-25T15:37:44.582Z,1.30
2022-10-25T15:40:29.681Z,1.02
2022-10-25T15:42:56.473Z,1.40
2022-10-25T15:45:23.204Z,0.95
2022-10-25T15:48:16.346Z,1.70
2022-10-25T15:50:49.089Z,0.90
2022-10-25T15:53:16.178Z,0.95
2022-10-25T15:55:43.419Z,0.90
2022-10-25T15:58:10.922Z,1.25
2022-10-25T16:03:25.023Z,1.27
2022-10-25T16:05:52.267Z,1.00
2022-10-25T16:08:19.446Z,1.40
2022-10-25T16:10:46.621Z,1.90
2022-10-25T16:13:35.793Z,1.67
2022-10-25T16:16:11.784Z,2.42
2022-10-25T16:18:48.874Z,1.60
2022-10-25T16:21:15.594Z,1.17
2022-10-25T16:24:39.008Z,0.70
2022-10-25T16:27:06.177Z,1.23
2022-10-25T16:29:33.237Z,1.00
2022-10-25T16:32:00.362Z,1.17
2022-10-25T16:34:27.192Z,0.85
2022-10-25T16:36:54.028Z,0.73
2022-10-25T16:39:21.116Z,1.33
2022-10-25T16:41:48.942Z,1.13
2022-10-25T16:44:18.274Z,0.75
2022-10-25T16:46:45.959Z,1.60
2022-10-25T16:49:13.046Z,1.25
2022-10-25T16:51:40.526Z,0.88
2022-10-25T16:54:07.879Z,1.20
2022-10-25T16:56:35.631Z,0.90
2022-10-25T16:59:03.102Z,1.50
2022-10-25T17:01:41.247Z,0.98
2022-10-25T17:04:17.049Z,0.80
2022-10-25T17:06:43.818Z,1.20
2022-10-25T17:09:11.121Z,1.45
2022-10-25T17:11:38.043Z,2.30
2022-10-25T17:14:05.029Z,0.75
2022-10-25T17:16:31.864Z,1.02
2022-10-25T17:18:58.632Z,1.55
2022-10-25T17:24:10.450Z,2.75
2022-10-25T17:26:37.742Z,2.20
2022-10-25T17:29:04.698Z,1.42
2022-10-25T17:31:32.796Z,1.90
2022-10-25T17:34:01.362Z,1.58
2022-10-25T17:36:32.475Z,1.65
2022-10-25T17:39:00.586Z,1.95
2022-10-25T17:41:27.844Z,1.83
2022-10-25T17:43:56.770Z,1.65
2022-10-25T17:49:12.086Z,1.63
2022-10-25T17:51:38.853Z,1.27
2022-10-25T17:54:05.690Z,1.23
2022-10-25T17:56:32.537Z,1.52
2022-10-25T17:59:18.062Z,1.80
2022-10-25T18:01:44.949Z,1.55
2022-10-25T18:04:46.878Z,1.88
2022-10-25T18:07:17.875Z,1.85
2022-10-25T18:09:44.587Z,1.63
2022-10-25T18:12:11.707Z,2.78
2022-10-25T18:14:39.065Z,1.90
2022-10-25T18:17:06.676Z,2.80
2022-10-25T18:19:33.566Z,1.95
2022-10-25T18:22:00.840Z,1.75
2022-10-25T18:24:30.478Z,2.60
2022-10-25T18:26:57.442Z,2.47
2022-10-25T18:29:24.184Z,2.13
2022-10-25T18:31:51.498Z,2.58
2022-10-25T18:34:18.813Z,2.20
2022-10-25T18:36:45.642Z,1.92
2022-10-25T18:39:12.398Z,1.85
2022-10-25T18:41:40.950Z,1.77
2022-10-25T18:44:14.183Z,1.83
2022-10-25T18:46:42.798Z,2.20
2022-10-25T18:49:14.235Z,1.08
2022-10-25T18:51:41.334Z,1.83
2022-10-25T18:54:09.803Z,2.88
2022-10-25T18:56:54.989Z,2.97
2022-10-25T18:59:21.882Z,2.83
2022-10-25T19:02:07.905Z,2.15
2022-10-25T19:04:34.741Z,2.05
2022-10-25T19:07:01.456Z,1.45
2022-10-25T19:09:28.181Z,2.13
2022-10-25T19:11:54.924Z,2.33
2022-10-25T19:14:21.759Z,3.83
2022-10-25T19:16:48.460Z,1.90
2022-10-25T19:19:15.337Z,2.88
2022-10-25T19:21:42.998Z,1.88
2022-10-25T19:24:14.024Z,2.05
2022-10-25T19:26:41.862Z,1.70
2022-10-25T19:29:09.367Z,2.17
2022-10-25T19:31:36.145Z,2.30
2022-10-25T19:34:03.315Z,1.95
2022-10-25T19:36:30.392Z,1.30
2022-10-25T19:38:57.171Z,2.35
2022-10-25T19:41:25.761Z,2.47
2022-10-25T19:43:53.221Z,2.33
2022-10-25T19:46:19.990Z,2.10
2022-10-25T19:48:46.812Z,1.80
2022-10-25T19:51:20.536Z,1.92
2022-10-25T19:54:06.234Z,1.90
2022-10-25T19:59:55.387Z,1.95
2022-10-25T20:02:22.179Z,2.10
2022-10-25T20:04:49.301Z,1.88
2022-10-25T20:07:16.102Z,1.80
2022-10-25T20:09:42.970Z,1.83
2022-10-25T20:12:09.714Z,1.90
2022-10-25T20:15:16.647Z,2.17
2022-10-25T20:18:02.172Z,1.60
2022-10-25T20:20:28.948Z,1.23
2022-10-25T20:23:15.499Z,1.83
2022-10-25T20:25:42.524Z,1.52
2022-10-25T20:28:10.790Z,1.30
2022-10-25T20:30:38.753Z,1.40
2022-10-25T20:33:06.634Z,1.27
2022-10-25T20:35:38.518Z,1.73
2022-10-25T20:38:06.586Z,1.38
2022-10-25T20:40:34.078Z,1.52
2022-10-25T20:43:01.433Z,1.35
2022-10-25T20:45:29.672Z,1.58
2022-10-25T20:47:58.197Z,2.15
2022-10-25T20:50:26.611Z,2.33
2022-10-25T20:53:10.537Z,1.80
2022-10-25T20:55:38.268Z,1.75
2022-10-25T20:58:05.385Z,2.40
2022-10-25T21:03:35.782Z,1.90
2022-10-25T21:06:21.352Z,2.28
2022-10-25T21:08:48.130Z,1.77
2022-10-25T21:11:14.925Z,1.70
2022-10-25T21:14:00.395Z,1.55
2022-10-25T21:16:27.280Z,2.70
2022-10-25T21:18:53.978Z,1.42
2022-10-25T21:21:21.122Z,1.85
2022-10-25T21:23:48.457Z,1.15
2022-10-25T21:26:15.816Z,1.98
2022-10-25T21:28:42.561Z,1.95
2022-10-25T21:33:59.474Z,1.42
2022-10-25T21:36:27.360Z,1.67
2022-10-25T21:38:54.092Z,1.55
2022-10-25T21:41:26.776Z,2.05
2022-10-25T21:43:54.958Z,1.45
2022-10-25T21:46:23.478Z,1.27
2022-10-25T21:48:50.836Z,1.15
2022-10-25T21:51:18.981Z,1.40
2022-10-25T21:54:04.339Z,1.35
2022-10-25T21:56:31.798Z,1.40
2022-10-25T21:58:59.715Z,1.80
2022-10-25T22:01:30.990Z,1.42
2022-10-25T22:03:58.246Z,1.20
2022-10-25T22:06:26.029Z,1.90
2022-10-25T22:08:54.416Z,1.15
2022-10-25T22:11:24.314Z,1.75
2022-10-25T22:13:59.042Z,1.40
2022-10-25T22:16:26.622Z,1.30
2022-10-25T22:18:59.031Z,1.98
2022-10-25T22:21:31.606Z,2.15
2022-10-25T22:23:58.584Z,2.03
2022-10-25T22:26:25.992Z,1.38
2022-10-25T22:28:57.509Z,1.60
2022-10-25T22:31:26.181Z,1.98
2022-10-25T22:33:58.791Z,1.92
2022-10-25T22:36:28.683Z,1.77
2022-10-25T22:38:56.760Z,1.55
2022-10-25T22:41:25.460Z,1.60
2022-10-25T22:43:52.508Z,1.67
2022-10-25T22:46:25.471Z,2.25
2022-10-25T22:48:54.603Z,2.45
2022-10-25T22:51:22.844Z,2.42
2022-10-25T22:54:08.631Z,1.92
2022-10-25T22:56:35.869Z,2.72
2022-10-25T22:59:04.608Z,2.58
2022-10-25T23:01:37.754Z,2.80
2022-10-25T23:04:07.682Z,2.92
2022-10-25T23:06:37.971Z,2.75
2022-10-25T23:09:08.982Z,3.28
2022-10-25T23:11:37.868Z,3.15
2022-10-25T23:14:05.493Z,2.90
2022-10-25T23:16:32.359Z,2.80
2022-10-25T23:18:59.237Z,3.10
2022-10-25T23:21:29.971Z,3.25
2022-10-25T23:23:57.911Z,3.88
2022-10-25T23:26:26.140Z,3.30
2022-10-25T23:28:54.534Z,4.05
2022-10-25T23:31:21.961Z,3.72
2022-10-25T23:33:54.103Z,2.67
2022-10-25T23:36:39.609Z,3.53
2022-10-25T23:39:07.611Z,3.42
2022-10-25T23:41:53.279Z,3.38
2022-10-25T23:44:20.048Z,3.97
2022-10-25T23:46:46.965Z,3.28
2022-10-25T23:49:13.717Z,3.97
2022-10-25T23:51:40.637Z,3.33
2022-10-25T23:54:09.613Z,3.83
2022-10-25T23:56:36.953Z,3.70
